Time;durP1;ratioP1;P1;durP2;ratioP2;P2;SDS_P1;SDS_P2;PMS_P1;PMS_P2;Temp;Humidity;BMP_temperature;BMP_pressure;BME280_temperature;BME280_humidity;BME280_pressure;Samples;Min_cycle;Max_cycle;Signal;HPM_P1;HPM_P2
2022/11/18 00:01:42;;;;;;;;;5.00;5.00;;;;;20.24;54.50;100012.24;105748;1281;19644;-65
2022/11/18 00:04:10;;;;;;;;;7.00;7.00;;;;;20.24;54.46;100007.38;105676;1281;22924;-65
2022/11/18 00:06:37;;;;;;;;;5.67;5.00;;;;;20.24;54.46;99999.81;105682;1272;19344;-66
2022/11/18 00:09:05;;;;;;;;;4.00;4.00;;;;;20.23;54.25;99999.67;105657;1297;18273;-66
2022/11/18 00:14:21;;;;;;;;;5.00;5.00;;;;;20.23;54.58;99998.96;105680;1271;19505;-66
2022/11/18 00:16:49;;;;;;;;;7.00;4.00;;;;;20.22;54.37;99992.21;105610;1297;137623;-62
2022/11/18 00:19:17;;;;;;;;;4.00;4.00;;;;;20.23;54.44;99998.09;105637;1279;18758;-64
2022/11/18 00:21:44;;;;;;;;;4.00;4.00;;;;;20.23;54.50;99995.48;105710;1279;22816;-64
2022/11/18 00:24:11;;;;;;;;;7.00;5.00;;;;;20.23;54.55;99997.84;105682;1297;18262;-65
2022/11/18 00:26:39;;;;;;;;;5.00;5.00;;;;;20.23;54.35;99992.64;105715;1297;18571;-66
2022/11/18 00:29:06;;;;;;;;;5.00;4.50;;;;;20.23;54.24;100001.31;105718;1282;21807;-64
2022/11/18 00:31:34;;;;;;;;;5.00;5.00;;;;;20.23;54.24;100000.46;105739;1289;22902;-63
2022/11/18 00:34:01;;;;;;;;;4.00;4.00;;;;;20.23;54.27;100000.50;105682;1294;18942;-66
2022/11/18 00:36:28;;;;;;;;;4.00;4.00;;;;;20.23;54.09;99995.77;105706;1272;19253;-65
2022/11/18 00:38:56;;;;;;;;;2.00;2.00;;;;;20.22;54.02;99996.52;105664;1297;22796;-65
2022/11/18 00:41:23;;;;;;;;;3.00;3.00;;;;;20.22;54.11;99997.10;105687;1279;18547;-64
2022/11/18 00:43:51;;;;;;;;;4.00;4.00;;;;;20.23;54.12;99995.95;105718;1271;22751;-64
2022/11/18 00:46:18;;;;;;;;;2.00;2.00;;;;;20.22;54.11;100002.85;105762;1271;19749;-64
2022/11/18 00:48:46;;;;;;;;;4.50;4.00;;;;;20.23;54.16;100001.02;105707;1271;20073;-65
2022/11/18 00:51:14;;;;;;;;;5.00;4.00;;;;;20.23;54.15;100000.64;105704;1272;19270;-66
2022/11/18 00:53:41;;;;;;;;;2.00;2.00;;;;;20.23;54.10;100002.77;105667;1297;22712;-65
2022/11/18 00:56:08;;;;;;;;;5.00;4.00;;;;;20.23;54.21;99996.70;105650;1275;18564;-64
2022/11/18 00:58:36;;;;;;;;;4.00;4.00;;;;;20.22;54.03;99992.93;105733;1288;19270;-64
2022/11/18 01:01:04;;;;;;;;;4.00;4.00;;;;;20.22;54.24;99990.58;105575;1271;23161;-64
2022/11/18 01:03:31;;;;;;;;;4.50;4.50;;;;;20.23;54.09;99986.90;105646;1289;18633;-65
2022/11/18 01:05:59;;;;;;;;;4.00;4.00;;;;;20.22;54.12;99979.36;105670;1286;24670;-65
2022/11/18 01:08:26;;;;;;;;;4.00;4.00;;;;;20.21;54.29;99976.52;105715;1272;20620;-65
2022/11/18 01:13:17;;;;;;;;;3.00;3.00;;;;;20.23;54.00;99976.86;105671;1271;22349;-64
2022/11/18 01:13:42;;;;;;;;;2.00;2.00;;;;;20.21;53.82;99976.66;105714;1297;20725;-65
2022/11/18 01:16:09;;;;;;;;;4.00;2.00;;;;;20.22;53.88;99977.52;105736;1278;22828;-64
2022/11/18 01:18:37;;;;;;;;;4.00;3.00;;;;;20.21;53.95;99980.89;105723;1298;18547;-65
2022/11/18 01:21:05;;;;;;;;;4.00;4.00;;;;;20.22;53.92;99986.23;105742;1297;20869;-65
2022/11/18 01:23:32;;;;;;;;;4.00;4.00;;;;;20.22;53.84;99985.55;105725;1295;18287;-65
2022/11/18 01:26:00;;;;;;;;;2.00;2.00;;;;;20.22;53.86;99990.81;105709;1295;18581;-65
2022/11/18 01:28:27;;;;;;;;;4.00;2.00;;;;;20.21;54.01;99985.08;105641;1287;19309;-65
2022/11/18 01:30:55;;;;;;;;;4.50;3.00;;;;;20.21;53.94;99992.48;105706;1282;18690;-65
2022/11/18 01:33:23;;;;;;;;;2.00;2.00;;;;;20.21;53.99;99996.13;105662;1295;18682;-65
2022/11/18 01:35:50;;;;;;;;;4.00;4.00;;;;;20.21;53.96;99990.18;105683;1279;22917;-65
2022/11/18 01:38:18;;;;;;;;;2.00;2.00;;;;;20.20;53.95;99984.48;105698;1294;18492;-65
2022/11/18 01:40:46;;;;;;;;;4.00;2.00;;;;;20.20;53.81;99980.70;105682;1297;21462;-65
2022/11/18 01:43:14;;;;;;;;;4.00;4.00;;;;;20.19;53.83;99982.58;105707;1272;24755;-66
2022/11/18 01:45:41;;;;;;;;;2.00;2.00;;;;;20.19;53.96;99985.17;105669;1279;19519;-66
2022/11/18 01:48:09;;;;;;;;;5.00;4.00;;;;;20.20;53.84;99988.32;105669;1275;20670;-65
2022/11/18 01:50:37;;;;;;;;;2.00;2.00;;;;;20.20;53.97;99986.31;105688;1297;23603;-66
2022/11/18 01:53:04;;;;;;;;;4.00;4.00;;;;;20.21;53.67;99988.38;105644;1279;18348;-66
2022/11/18 01:55:31;;;;;;;;;4.00;4.00;;;;;20.19;53.94;99981.88;105711;1272;20050;-64
2022/11/18 01:57:59;;;;;;;;;4.00;4.00;;;;;20.19;53.91;99979.48;105651;1272;22162;-65
2022/11/18 02:00:26;;;;;;;;;2.00;2.00;;;;;20.20;53.75;99982.67;105695;1271;18402;-66
2022/11/18 02:02:53;;;;;;;;;4.00;4.00;;;;;20.19;53.91;99986.36;105666;1296;21118;-66
2022/11/18 02:05:21;;;;;;;;;2.00;2.00;;;;;20.19;53.89;99988.40;105706;1279;19265;-65
2022/11/18 02:07:49;;;;;;;;;2.00;2.00;;;;;20.20;53.65;99992.89;105718;1282;19641;-66
2022/11/18 02:10:16;;;;;;;;;2.00;2.00;;;;;20.20;53.67;100000.09;105721;1272;18538;-64
2022/11/18 02:12:43;;;;;;;;;1.00;1.00;;;;;20.19;53.82;99998.70;105719;1279;19164;-65
2022/11/18 02:15:11;;;;;;;;;2.00;2.00;;;;;20.20;53.75;100001.55;105707;1289;18625;-65
2022/11/18 02:17:38;;;;;;;;;2.00;2.00;;;;;20.19;53.76;99997.61;105726;1272;20010;-66
2022/11/18 02:23:09;;;;;;;;;3.00;2.00;;;;;20.20;53.50;100004.82;105462;1271;18626;-65
2022/11/18 02:25:38;;;;;;;;;2.00;2.00;;;;;20.19;53.65;100007.48;105630;1271;18595;-65
2022/11/18 02:28:05;;;;;;;;;4.00;4.00;;;;;20.19;53.77;100009.50;105788;1271;19254;-65
2022/11/18 02:30:32;;;;;;;;;1.50;1.50;;;;;20.20;53.90;100011.18;105658;1281;18402;-65
2022/11/18 02:33:00;;;;;;;;;4.00;2.00;;;;;20.19;53.66;100006.23;105707;1297;19992;-65
2022/11/18 02:35:27;;;;;;;;;2.00;2.00;;;;;20.19;53.52;100006.06;105666;1279;19392;-65
2022/11/18 02:37:55;;;;;;;;;3.00;2.00;;;;;20.19;53.65;100005.65;105655;1279;18311;-65
2022/11/18 02:40:23;;;;;;;;;4.00;2.00;;;;;20.19;53.73;100006.58;105650;1288;20178;-65
2022/11/18 02:42:51;;;;;;;;;3.00;2.00;;;;;20.19;53.77;100007.86;105649;1272;19277;-65
2022/11/18 02:45:18;;;;;;;;;2.00;2.00;;;;;20.19;53.72;100005.69;105715;1297;22625;-65
2022/11/18 02:47:48;;;;;;;;;4.50;4.00;;;;;20.19;53.57;100001.88;105690;1280;18656;-66
2022/11/18 02:50:16;;;;;;;;;4.00;2.00;;;;;20.18;53.69;100007.02;105658;1297;19301;-65
2022/11/18 02:52:43;;;;;;;;;2.00;2.00;;;;;20.18;53.56;99999.61;105681;1298;20172;-65
2022/11/18 02:55:11;;;;;;;;;4.00;2.00;;;;;20.18;53.49;100002.17;105684;1288;20271;-65
2022/11/18 02:57:38;;;;;;;;;4.00;4.00;;;;;20.18;53.53;100004.68;105661;1282;19346;-64
2022/11/18 03:00:06;;;;;;;;;2.00;2.00;;;;;20.18;53.56;100006.02;105699;1284;19976;-65
2022/11/18 03:02:33;;;;;;;;;4.00;4.00;;;;;20.17;53.63;100003.13;105669;1274;19990;-65
2022/11/18 03:05:01;;;;;;;;;5.00;2.00;;;;;20.18;53.52;100002.55;105651;1297;19339;-65
2022/11/18 03:07:29;;;;;;;;;2.00;2.00;;;;;20.17;53.63;100005.61;105630;1279;18350;-65
2022/11/18 03:09:56;;;;;;;;;2.00;2.00;;;;;20.17;53.59;100010.77;105685;1297;18501;-65
2022/11/18 03:12:24;;;;;;;;;2.00;2.00;;;;;20.17;53.44;100004.28;105716;1281;19284;-65
2022/11/18 03:14:52;;;;;;;;;4.00;4.00;;;;;20.17;53.56;100002.66;105731;1279;20271;-65
2022/11/18 03:17:19;;;;;;;;;2.00;2.00;;;;;20.17;53.46;100003.61;105696;1297;18526;-65
2022/11/18 03:19:47;;;;;;;;;2.00;2.00;;;;;20.17;53.40;100005.55;105672;1282;20789;-65
2022/11/18 03:22:14;;;;;;;;;2.00;2.00;;;;;20.17;53.43;100001.32;105656;1280;18429;-65
2022/11/18 03:24:41;;;;;;;;;3.00;2.00;;;;;20.17;53.45;100002.35;105652;1281;22341;-64
2022/11/18 03:27:10;;;;;;;;;2.00;2.00;;;;;20.17;53.48;100006.77;105756;1297;19222;-65
2022/11/18 03:29:38;;;;;;;;;5.00;4.00;;;;;20.17;53.48;100008.61;105683;1295;18494;-64
2022/11/18 03:32:06;;;;;;;;;2.00;2.00;;;;;20.17;53.40;100008.60;105723;1272;18639;-62
2022/11/18 03:34:34;;;;;;;;;2.00;2.00;;;;;20.16;53.56;100003.11;105652;1294;22491;-64
2022/11/18 03:37:02;;;;;;;;;2.00;2.00;;;;;20.17;53.48;100007.59;105699;1281;18558;-65
2022/11/18 03:39:29;;;;;;;;;2.00;2.00;;;;;20.15;53.59;100005.39;105658;1289;21077;-65
2022/11/18 03:41:57;;;;;;;;;4.00;2.00;;;;;20.18;53.49;100006.52;105675;1297;21894;-63
2022/11/18 03:44:24;;;;;;;;;2.00;2.00;;;;;20.17;53.40;100006.85;105665;1279;18397;-65
2022/11/18 03:46:52;;;;;;;;;2.00;2.00;;;;;20.17;53.53;100010.14;105733;1296;18839;-64
2022/11/18 03:49:19;;;;;;;;;2.00;2.00;;;;;20.17;53.51;100011.02;105694;1288;19463;-65
2022/11/18 03:51:47;;;;;;;;;2.00;2.00;;;;;20.16;53.57;100006.37;105681;1297;18464;-65
2022/11/18 03:54:14;;;;;;;;;1.50;1.50;;;;;20.16;53.45;100001.80;105727;1293;18507;-66
2022/11/18 03:56:42;;;;;;;;;2.00;2.00;;;;;20.16;53.47;100009.50;105663;1279;19290;-64
2022/11/18 03:59:10;;;;;;;;;2.00;2.00;;;;;20.16;53.49;100010.71;105674;1279;18985;-65
2022/11/18 04:01:37;;;;;;;;;2.00;2.00;;;;;20.14;53.47;100008.57;105659;1286;18631;-65
2022/11/18 04:04:05;;;;;;;;;2.00;2.00;;;;;20.15;53.35;100012.50;105656;1287;22769;-65
2022/11/18 04:06:33;;;;;;;;;2.00;2.00;;;;;20.16;53.40;100012.02;105704;1297;18769;-65
2022/11/18 04:09:01;;;;;;;;;2.00;2.00;;;;;20.17;53.31;100013.58;105722;1297;20289;-65
2022/11/18 04:14:14;;;;;;;;;2.00;2.00;;;;;20.15;53.16;100003.04;105716;1272;18343;-66
2022/11/18 04:16:42;;;;;;;;;;;;;;;20.16;53.40;100004.59;105707;1278;18667;-65
2022/11/18 04:19:09;;;;;;;;;2.00;2.00;;;;;20.15;53.28;100002.32;105677;1295;20108;-65
2022/11/18 04:21:37;;;;;;;;;2.00;2.00;;;;;20.15;53.24;100003.54;105704;1280;19247;-65
2022/11/18 04:24:04;;;;;;;;;4.00;2.00;;;;;20.16;53.19;100006.98;105766;1289;18555;-65
2022/11/18 04:26:31;;;;;;;;;2.00;2.00;;;;;20.15;53.17;100005.63;105709;1297;19276;-65
2022/11/18 04:28:59;;;;;;;;;1.00;1.00;;;;;20.15;53.05;100008.32;105724;1288;18298;-65
2022/11/18 04:31:27;;;;;;;;;2.00;2.00;;;;;20.16;53.24;100011.70;105659;1297;21886;-65
2022/11/18 04:33:55;;;;;;;;;2.00;2.00;;;;;20.15;53.41;100009.44;105667;1297;19302;-65
2022/11/18 04:36:22;;;;;;;;;2.00;2.00;;;;;20.15;53.16;100010.02;105707;1297;18425;-66
2022/11/18 04:38:50;;;;;;;;;2.00;1.67;;;;;20.15;53.30;100014.13;105695;1300;18518;-65
2022/11/18 04:41:18;;;;;;;;;1.50;1.50;;;;;20.14;53.21;100011.39;105658;1289;19190;-65
2022/11/18 04:43:45;;;;;;;;;2.00;2.00;;;;;20.15;53.41;100015.09;105671;1296;20764;-65
2022/11/18 04:46:13;;;;;;;;;2.00;2.00;;;;;20.14;53.33;100013.20;105612;1295;18766;-65
2022/11/18 04:48:41;;;;;;;;;2.00;2.00;;;;;20.14;53.21;100011.70;105711;1280;19554;-65
2022/11/18 04:51:09;;;;;;;;;2.00;2.00;;;;;20.15;53.15;100017.27;105633;1297;18379;-64
2022/11/18 04:53:36;;;;;;;;;2.00;2.00;;;;;20.15;53.23;100016.18;105516;1297;18806;-64
2022/11/18 04:56:04;;;;;;;;;1.50;1.50;;;;;20.15;53.09;100016.18;105654;1295;20757;-63
2022/11/18 04:58:32;;;;;;;;;1.00;1.00;;;;;20.14;53.06;100021.19;105694;1295;18360;-64
2022/11/18 05:00:59;;;;;;;;;1.00;1.00;;;;;20.14;53.15;100020.27;105683;1288;21919;-65
2022/11/18 05:03:27;;;;;;;;;1.00;1.00;;;;;20.14;53.16;100017.51;105695;1296;19283;-65
2022/11/18 05:05:54;;;;;;;;;1.00;1.00;;;;;20.14;53.08;100017.77;105740;1297;22543;-64
2022/11/18 05:08:22;;;;;;;;;2.00;2.00;;;;;20.14;53.30;100018.30;105692;1288;20101;-65
2022/11/18 05:10:49;;;;;;;;;4.00;2.00;;;;;20.13;53.23;100015.33;105708;1297;20848;-64
2022/11/18 05:13:17;;;;;;;;;2.00;2.00;;;;;20.13;53.10;100018.38;105662;1288;20499;-65
2022/11/18 05:15:45;;;;;;;;;1.50;1.50;;;;;20.13;52.99;100021.02;105660;1294;18716;-64
2022/11/18 05:18:12;;;;;;;;;1.33;1.33;;;;;20.13;53.05;100015.84;105600;1275;19336;-65
2022/11/18 05:20:40;;;;;;;;;2.00;2.00;;;;;20.12;52.98;100013.40;105676;1295;18838;-65
2022/11/18 05:23:07;;;;;;;;;2.00;2.00;;;;;20.13;53.10;100016.63;105592;1294;18484;-66
2022/11/18 05:25:34;;;;;;;;;2.00;2.00;;;;;20.13;53.07;100015.86;105609;1279;20503;-64
2022/11/18 05:28:02;;;;;;;;;1.50;1.50;;;;;20.13;53.12;100019.09;105611;1279;19558;-65
2022/11/18 05:30:29;;;;;;;;;1.00;1.00;;;;;20.13;53.02;100021.10;105684;1281;18706;-66
2022/11/18 05:32:57;;;;;;;;;2.00;2.00;;;;;20.13;53.20;100021.23;105615;1297;21634;-66
2022/11/18 05:35:24;;;;;;;;;2.00;2.00;;;;;20.12;52.88;100013.77;105574;1295;18355;-66
2022/11/18 05:37:52;;;;;;;;;2.00;2.00;;;;;20.12;52.93;100016.11;105614;1279;21703;-66
2022/11/18 05:40:19;;;;;;;;;2.00;2.00;;;;;20.15;53.20;100013.92;105496;1271;19282;-66
2022/11/18 05:45:46;;;;;;;;;;;;;;;20.18;53.69;100019.91;105318;1274;19683;-65
2022/11/18 05:48:14;;;;;;;;;2.00;2.00;;;;;20.18;54.00;100021.55;105453;1289;21502;-65
2022/11/18 05:50:41;;;;;;;;;1.00;1.00;;;;;20.18;54.02;100022.50;105355;1300;18398;-67
2022/11/18 05:53:09;;;;;;;;;2.00;2.00;;;;;20.17;53.97;100026.21;105356;1291;18560;-65
2022/11/18 05:55:36;;;;;;;;;2.00;2.00;;;;;20.18;53.94;100029.20;105366;1282;19224;-64
2022/11/18 05:58:04;;;;;;;;;2.00;2.00;;;;;20.15;54.30;100027.89;105379;1282;18845;-65
2022/11/18 06:00:31;;;;;;;;;2.00;2.00;;;;;20.17;53.93;100025.33;105387;1300;20043;-66
2022/11/18 06:02:59;;;;;;;;;;;;;;;20.18;53.89;100027.86;105345;1282;19452;-66
2022/11/18 06:05:26;;;;;;;;;1.50;1.50;;;;;20.19;53.92;100031.47;105357;1299;19935;-65
2022/11/18 06:07:54;;;;;;;;;2.00;2.00;;;;;20.18;54.12;100031.69;105353;1284;24047;-65
2022/11/18 06:10:21;;;;;;;;;;;;;;;20.18;54.10;100029.04;105368;1274;19382;-66
2022/11/18 06:12:49;;;;;;;;;2.00;2.00;;;;;20.17;54.28;100030.91;105353;1274;20281;-66
2022/11/18 06:15:16;;;;;;;;;2.00;2.00;;;;;20.17;54.21;100038.77;105388;1274;20094;-66
2022/11/18 06:17:44;;;;;;;;;2.00;2.00;;;;;20.16;54.33;100040.55;105560;1285;19323;-66
2022/11/18 06:20:11;;;;;;;;;1.50;1.50;;;;;20.16;54.22;100039.15;105670;1296;18303;-66
2022/11/18 06:22:38;;;;;;;;;2.00;2.00;;;;;20.17;54.17;100041.66;105655;1282;18456;-65
2022/11/18 06:25:06;;;;;;;;;1.50;1.50;;;;;20.16;54.02;100044.13;105632;1296;20874;-66
2022/11/18 06:27:33;;;;;;;;;2.00;2.00;;;;;20.16;54.35;100041.91;105667;1296;18516;-66
2022/11/18 06:30:01;;;;;;;;;2.00;2.00;;;;;20.17;54.01;100045.10;105735;1275;18680;-65
2022/11/18 06:32:29;;;;;;;;;1.50;1.50;;;;;20.17;53.88;100047.98;105720;1279;19273;-65
2022/11/18 06:34:56;;;;;;;;;2.00;2.00;;;;;20.17;53.89;100049.62;105617;1294;19751;-64
2022/11/18 06:37:23;;;;;;;;;2.00;2.00;;;;;20.17;53.78;100047.65;105662;1282;21080;-64
2022/11/18 06:39:51;;;;;;;;;1.00;1.00;;;;;20.16;53.87;100051.70;105635;1297;19494;-66
2022/11/18 06:45:00;;;;;;;;;2.00;2.00;;;;;20.16;53.79;100055.73;105668;1293;18632;-66
2022/11/18 06:47:28;;;;;;;;;1.00;1.00;;;;;20.16;53.95;100053.33;105642;1275;21115;-65
2022/11/18 06:49:55;;;;;;;;;1.00;1.00;;;;;20.16;53.72;100053.54;105683;1288;29740;-65
2022/11/18 06:52:23;;;;;;;;;1.00;1.00;;;;;20.16;53.80;100055.55;105676;1295;18514;-66
2022/11/18 06:54:50;;;;;;;;;2.00;2.00;;;;;20.17;53.81;100057.91;105658;1295;19267;-65
2022/11/18 06:57:18;;;;;;;;;1.00;1.00;;;;;20.17;53.94;100057.40;105729;1280;22185;-66
2022/11/18 06:59:45;;;;;;;;;1.00;1.00;;;;;20.20;53.58;100064.13;105677;1282;18467;-67
2022/11/18 07:02:13;;;;;;;;;1.00;1.00;;;;;20.20;53.59;100063.17;105668;1297;19316;-66
2022/11/18 07:04:41;;;;;;;;;2.00;2.00;;;;;20.20;53.85;100066.52;105697;1292;18450;-66
2022/11/18 07:07:08;;;;;;;;;1.00;1.00;;;;;20.20;53.64;100070.28;105636;1294;18674;-67
2022/11/18 07:09:36;;;;;;;;;1.00;1.00;;;;;20.20;53.79;100071.17;105703;1296;19172;-67
2022/11/18 07:12:03;;;;;;;;;2.00;2.00;;;;;20.21;53.66;100070.92;105686;1287;22581;-66
2022/11/18 07:14:31;;;;;;;;;1.00;1.00;;;;;20.21;53.81;100070.05;105651;1282;18507;-64
2022/11/18 07:16:58;;;;;;;;;2.00;2.00;;;;;20.24;53.67;100070.17;105650;1272;21173;-64
2022/11/18 07:19:26;;;;;;;;;1.50;1.50;;;;;20.25;53.60;100074.38;105667;1287;18391;-64
2022/11/18 07:21:53;;;;;;;;;1.00;1.00;;;;;20.25;53.61;100072.70;105638;1280;18527;-65
2022/11/18 07:24:21;;;;;;;;;2.00;2.00;;;;;20.26;53.59;100073.84;105695;1296;22687;-64
2022/11/18 07:26:48;;;;;;;;;1.00;1.00;;;;;20.27;54.00;100068.36;105668;1271;18302;-65
2022/11/18 07:29:15;;;;;;;;;2.00;1.00;;;;;20.28;54.16;100067.50;105705;1271;18520;-65
2022/11/18 07:31:43;;;;;;;;;1.00;1.00;;;;;20.29;54.20;100067.19;105655;1287;22190;-64
2022/11/18 07:34:11;;;;;;;;;2.00;2.00;;;;;20.30;54.15;100067.45;105705;1289;18425;-65
2022/11/18 07:36:39;;;;;;;;;;;;;;;20.30;53.98;100067.58;105691;1297;18391;-64
2022/11/18 07:39:07;;;;;;;;;1.00;1.00;;;;;20.30;53.72;100070.30;105661;1279;19315;-65
2022/11/18 07:41:35;;;;;;;;;2.00;2.00;;;;;20.29;53.64;100071.25;105686;1279;18530;-63
2022/11/18 07:44:02;;;;;;;;;2.00;2.00;;;;;20.26;53.77;100071.12;105631;1279;18720;-63
2022/11/18 07:46:30;;;;;;;;;4.00;2.00;;;;;20.26;53.99;100068.65;105675;1271;22735;-65
2022/11/18 07:48:57;;;;;;;;;1.00;1.00;;;;;20.28;54.01;100073.66;105677;1279;19581;-65
2022/11/18 07:51:25;;;;;;;;;2.00;2.00;;;;;20.29;53.91;100068.31;105690;1280;18838;-66
2022/11/18 07:53:53;;;;;;;;;1.00;1.00;;;;;20.31;53.98;100067.92;105578;1279;22927;-63
2022/11/18 07:56:20;;;;;;;;;2.00;2.00;;;;;20.34;54.16;100068.71;105624;1272;18412;-63
2022/11/18 07:58:48;;;;;;;;;47.00;40.00;;;;;20.37;54.25;100066.19;105626;1279;18613;-61
2022/11/18 08:01:15;;;;;;;;;93.00;68.00;;;;;20.38;54.24;100061.73;105674;1279;21021;-60
2022/11/18 08:03:43;;;;;;;;;105.50;76.50;;;;;20.36;54.15;100065.06;105631;1279;19124;-66
2022/11/18 08:06:10;;;;;;;;;122.50;94.50;;;;;20.36;54.40;100063.27;105632;1288;26001;-66
2022/11/18 08:08:38;;;;;;;;;159.00;120.00;;;;;20.35;54.33;100066.60;105595;1272;19600;-66
2022/11/18 08:11:06;;;;;;;;;141.00;113.00;;;;;20.38;54.47;100066.20;105623;1279;18855;-66
2022/11/18 08:13:34;;;;;;;;;151.00;112.00;;;;;20.41;54.35;100063.65;105614;1280;18708;-67
2022/11/18 08:16:02;;;;;;;;;128.00;97.00;;;;;20.45;54.18;100064.40;105645;1272;19302;-66
2022/11/18 08:18:29;;;;;;;;;121.00;94.00;;;;;20.47;54.12;100067.70;105633;1271;23219;-65
2022/11/18 08:20:57;;;;;;;;;100.00;68.00;;;;;20.49;54.14;100066.20;105644;1280;18755;-61
2022/11/18 08:23:26;;;;;;;;;86.50;62.00;;;;;20.50;54.18;100067.98;105624;1288;19213;-64
2022/11/18 08:25:53;;;;;;;;;72.00;55.00;;;;;20.56;54.34;100067.84;105643;1294;18881;-66
2022/11/18 08:28:21;;;;;;;;;66.00;51.00;;;;;20.59;54.29;100071.48;105692;1297;18638;-65
2022/11/18 08:30:49;;;;;;;;;62.00;47.50;;;;;20.61;54.15;100067.55;105670;1297;19512;-67
2022/11/18 08:33:16;;;;;;;;;55.00;44.00;;;;;20.63;54.19;100069.84;105686;1296;19897;-67
2022/11/18 08:35:43;;;;;;;;;41.00;34.00;;;;;20.63;54.03;100072.98;105534;1294;18740;-66
2022/11/18 08:38:11;;;;;;;;;42.00;36.00;;;;;20.63;54.04;100069.91;105664;1271;19267;-65
2022/11/18 08:40:39;;;;;;;;;39.00;33.00;;;;;20.62;54.05;100071.84;105662;1300;18565;-65
2022/11/18 08:43:06;;;;;;;;;30.00;25.50;;;;;20.64;53.95;100067.38;105605;1287;20132;-65
2022/11/18 08:45:33;;;;;;;;;24.50;24.00;;;;;20.66;53.85;100069.08;105545;1296;21976;-64
2022/11/18 08:48:01;;;;;;;;;27.00;23.00;;;;;20.66;53.72;100078.25;105573;1279;18612;-63
2022/11/18 08:50:29;;;;;;;;;24.00;21.00;;;;;20.65;53.52;100076.57;105610;1280;20071;-67
2022/11/18 08:52:56;;;;;;;;;21.50;18.00;;;;;20.66;53.27;100080.69;105664;1297;20826;-65
2022/11/18 08:55:23;;;;;;;;;22.00;18.00;;;;;20.67;53.26;100079.10;105644;1279;18526;-66
2022/11/18 08:57:51;;;;;;;;;24.00;20.50;;;;;20.68;53.52;100079.37;105667;1289;18743;-66
2022/11/18 09:00:18;;;;;;;;;16.00;14.00;;;;;20.67;53.37;100079.48;105701;1297;22213;-65
2022/11/18 09:02:46;;;;;;;;;16.50;14.50;;;;;20.68;53.31;100077.98;105602;1274;22087;-63
2022/11/18 09:05:13;;;;;;;;;16.00;14.00;;;;;20.70;53.41;100080.77;105685;1294;18729;-63
2022/11/18 09:07:41;;;;;;;;;15.50;11.50;;;;;20.72;53.15;100072.75;105672;1279;19300;-65
2022/11/18 09:10:08;;;;;;;;;15.00;12.00;;;;;20.74;53.15;100071.77;105577;1272;18531;-63
2022/11/18 09:12:36;;;;;;;;;11.00;9.00;;;;;20.76;53.12;100076.61;105609;1297;18700;-65
2022/11/18 09:15:03;;;;;;;;;12.00;11.00;;;;;20.79;53.18;100075.46;105575;1279;19323;-65
2022/11/18 09:17:31;;;;;;;;;12.00;9.00;;;;;20.79;52.92;100070.02;105651;1296;18912;-64
2022/11/18 09:20:16;;;;;;;;;12.00;8.00;;;;;20.81;53.00;100064.84;105627;1284;18960;-63
2022/11/18 09:22:44;;;;;;;;;8.00;8.00;;;;;20.81;53.19;100065.73;105682;1281;22708;-65
2022/11/18 09:25:12;;;;;;;;;7.00;7.00;;;;;20.84;52.90;100073.29;105614;1297;18699;-66
2022/11/18 09:27:39;;;;;;;;;8.50;8.50;;;;;20.84;52.99;100071.96;105593;1292;18615;-65
2022/11/18 09:30:07;;;;;;;;;7.00;7.00;;;;;20.84;53.08;100075.80;105628;1295;22212;-63
2022/11/18 09:32:34;;;;;;;;;8.50;7.50;;;;;20.84;52.88;100076.27;105631;1288;19639;-66
2022/11/18 09:35:02;;;;;;;;;9.00;6.00;;;;;20.83;52.99;100078.95;105600;1288;18521;-66
2022/11/18 09:37:30;;;;;;;;;8.00;8.00;;;;;20.83;53.07;100077.35;105633;1301;19193;-66
2022/11/18 09:39:57;;;;;;;;;18.00;16.00;;;;;20.84;53.46;100077.98;105615;1289;22823;-65
2022/11/18 09:42:25;;;;;;;;;;;;;;;20.83;53.41;100074.59;105660;1288;18679;-64
2022/11/18 09:44:52;;;;;;;;;38.00;36.00;;;;;20.85;53.67;100077.84;105668;1300;19417;-63
2022/11/18 09:47:19;;;;;;;;;33.00;30.00;;;;;20.85;53.69;100075.10;105635;1297;22124;-64
2022/11/18 09:49:47;;;;;;;;;29.00;27.00;;;;;20.84;53.45;100071.58;105608;1279;18683;-64
2022/11/18 09:52:14;;;;;;;;;23.00;22.50;;;;;20.82;53.57;100072.16;105628;1297;20732;-65
2022/11/18 09:54:42;;;;;;;;;20.00;20.00;;;;;20.81;53.40;100072.64;105628;1288;20297;-65
2022/11/18 09:57:10;;;;;;;;;19.00;17.00;;;;;20.79;53.65;100075.13;105697;1279;18690;-65
2022/11/18 09:59:37;;;;;;;;;;;;;;;20.77;53.58;100074.65;105668;1281;19338;-64
2022/11/18 10:02:05;;;;;;;;;18.00;16.00;;;;;20.76;53.85;100078.41;105638;1289;21345;-64
2022/11/18 10:04:32;;;;;;;;;16.00;15.00;;;;;20.73;53.75;100074.91;105650;1273;22809;-63
2022/11/18 10:07:00;;;;;;;;;16.00;15.00;;;;;20.74;53.61;100077.38;105658;1282;19370;-65
2022/11/18 10:09:27;;;;;;;;;15.00;15.00;;;;;20.73;53.75;100071.30;105617;1295;19049;-63
2022/11/18 10:11:56;;;;;;;;;;;;;;;20.71;53.69;100069.02;105705;1288;18823;-65
2022/11/18 10:14:23;;;;;;;;;14.00;11.50;;;;;20.71;53.81;100069.40;105652;1288;20765;-64
2022/11/18 10:16:50;;;;;;;;;11.50;11.50;;;;;20.69;53.66;100067.06;105576;1279;18899;-64
2022/11/18 10:19:18;;;;;;;;;11.00;9.00;;;;;20.69;53.62;100069.85;105620;1289;18902;-64
2022/11/18 10:21:46;;;;;;;;;;;;;;;20.68;53.59;100068.89;105624;1282;19384;-63
2022/11/18 10:24:13;;;;;;;;;7.50;7.50;;;;;20.67;53.57;100073.65;105626;1288;22313;-64
2022/11/18 10:26:41;;;;;;;;;9.00;8.00;;;;;20.67;53.31;100070.30;105641;1279;18539;-65
2022/11/18 10:29:09;;;;;;;;;9.00;8.00;;;;;20.65;52.97;100075.23;105596;1280;19362;-64
2022/11/18 10:31:37;;;;;;;;;8.00;8.00;;;;;20.67;53.13;100075.84;105651;1280;22654;-61
2022/11/18 10:34:05;;;;;;;;;8.50;8.00;;;;;20.70;53.01;100075.54;105643;1296;18513;-61
2022/11/18 10:36:33;;;;;;;;;10.50;8.00;;;;;20.73;53.29;100072.97;105682;1289;20851;-63
2022/11/18 10:39:00;;;;;;;;;8.00;7.50;;;;;20.75;53.51;100075.29;105696;1281;22864;-64
2022/11/18 10:41:28;;;;;;;;;7.00;7.00;;;;;20.73;53.86;100074.90;105656;1272;18744;-62
2022/11/18 10:43:56;;;;;;;;;7.00;7.00;;;;;20.74;54.01;100078.48;105657;1280;19644;-63
2022/11/18 10:46:24;;;;;;;;;7.00;7.00;;;;;20.74;54.32;100082.41;105687;1279;18400;-61
2022/11/18 10:48:52;;;;;;;;;8.00;8.00;;;;;20.73;54.73;100085.42;105680;1280;20044;-63
2022/11/18 10:51:19;;;;;;;;;8.00;5.00;;;;;20.74;54.85;100090.95;105697;1295;19196;-62
2022/11/18 10:53:47;;;;;;;;;5.00;5.00;;;;;20.73;54.80;100089.73;105598;1289;18361;-63
2022/11/18 10:56:15;;;;;;;;;5.00;5.00;;;;;20.73;54.91;100093.84;105661;1282;18604;-64
2022/11/18 10:58:42;;;;;;;;;5.00;4.00;;;;;20.75;55.18;100091.14;105663;1295;19467;-63
2022/11/18 11:01:09;;;;;;;;;5.00;5.00;;;;;20.75;54.88;100090.34;105680;1280;18488;-62
2022/11/18 11:03:37;;;;;;;;;4.50;4.00;;;;;20.75;55.22;100092.88;105696;1297;18509;-66
2022/11/18 11:06:04;;;;;;;;;8.00;7.00;;;;;20.77;55.40;100090.24;105663;1291;20926;-64
2022/11/18 11:08:32;;;;;;;;;6.00;5.00;;;;;20.76;55.23;100095.23;105596;1279;20033;-64
2022/11/18 11:10:59;;;;;;;;;;;;;;;20.73;55.17;100098.77;105394;1281;23466;-65
2022/11/18 11:13:27;;;;;;;;;5.00;4.00;;;;;20.67;55.14;100096.91;105560;1297;19608;-62
2022/11/18 11:15:55;;;;;;;;;;;;;;;20.66;55.24;100098.02;105635;1274;18336;-63
2022/11/18 11:21:07;;;;;;;;;4.00;2.00;;;;;20.61;54.97;100096.24;105708;1297;19476;-61
2022/11/18 11:23:35;;;;;;;;;3.00;3.00;;;;;20.60;55.13;100102.36;105704;1297;18877;-65
2022/11/18 11:26:03;;;;;;;;;2.00;2.00;;;;;20.59;54.85;100097.44;105700;1288;18724;-64
2022/11/18 11:28:30;;;;;;;;;2.00;2.00;;;;;20.58;54.73;100094.80;105687;1297;19308;-64
2022/11/18 11:30:58;;;;;;;;;4.00;2.00;;;;;20.57;54.65;100096.61;105719;1297;18381;-64
2022/11/18 11:33:26;;;;;;;;;5.00;4.00;;;;;20.55;54.60;100098.23;105727;1297;18638;-64
2022/11/18 11:35:54;;;;;;;;;2.00;2.00;;;;;20.57;54.48;100101.34;105691;1279;19581;-63